createdAt,value
2022-08-05T00:00:19.431Z,20.00
2022-08-05T00:02:50.953Z,20.00
2022-08-05T00:06:02.555Z,19.90
2022-08-05T00:08:32.996Z,19.90
2022-08-05T00:11:00.192Z,20.00
2022-08-05T00:13:39.273Z,19.90
2022-08-05T00:16:15.238Z,19.90
2022-08-05T00:18:48.084Z,19.90
2022-08-05T00:21:18.121Z,19.90
2022-08-05T00:24:05.043Z,19.90
2022-08-05T00:26:35.369Z,19.90
2022-08-05T00:29:03.231Z,19.80
2022-08-05T00:31:53.828Z,19.90
2022-08-05T00:34:55.859Z,19.90
2022-08-05T00:37:12.380Z,19.80
2022-08-05T00:39:58.435Z,19.80
2022-08-05T00:42:35.381Z,19.80
2022-08-05T00:45:11.871Z,19.80
2022-08-05T00:47:56.434Z,19.80
2022-08-05T00:50:25.842Z,19.80
2022-08-05T00:52:55.122Z,19.80
2022-08-05T00:55:33.925Z,19.80
2022-08-05T00:58:02.831Z,19.90
2022-08-05T01:00:32.614Z,19.80
2022-08-05T01:03:01.471Z,19.90
2022-08-05T01:05:35.447Z,19.80
2022-08-05T01:08:42.111Z,19.80
2022-08-05T01:10:58.357Z,19.60
2022-08-05T01:13:57.677Z,19.60
2022-08-05T01:16:44.457Z,19.60
2022-08-05T01:19:36.524Z,19.50
2022-08-05T01:22:37.446Z,19.50
2022-08-05T01:25:40.545Z,19.40
2022-08-05T01:28:39.543Z,19.40
2022-08-05T01:31:17.407Z,19.40
2022-08-05T01:34:05.331Z,19.40
2022-08-05T01:37:04.299Z,19.40
2022-08-05T01:39:45.815Z,19.30
2022-08-05T01:42:20.135Z,19.20
2022-08-05T01:44:54.084Z,19.20
2022-08-05T01:47:30.531Z,19.20
2022-08-05T01:50:28.704Z,19.20
2022-08-05T01:53:05.517Z,19.10
2022-08-05T01:55:37.226Z,19.10
2022-08-05T01:58:15.634Z,19.00
2022-08-05T02:00:50.603Z,19.10
2022-08-05T02:03:31.638Z,19.10
2022-08-05T02:06:03.679Z,19.20
2022-08-05T02:08:57.855Z,19.20
2022-08-05T02:11:42.246Z,19.20
2022-08-05T02:14:27.749Z,19.20
2022-08-05T02:17:04.831Z,19.20
2022-08-05T02:19:42.724Z,19.10
2022-08-05T02:22:27.465Z,19.20
2022-08-05T02:25:24.875Z,19.20
2022-08-05T02:27:59.867Z,19.30
2022-08-05T02:30:51.847Z,19.30
2022-08-05T02:33:38.517Z,19.40
2022-08-05T02:36:15.572Z,19.30
2022-08-05T02:38:52.844Z,19.20
2022-08-05T02:41:28.766Z,19.00
2022-08-05T02:44:13.829Z,18.90
2022-08-05T02:46:58.681Z,18.80
2022-08-05T02:49:35.653Z,18.70
2022-08-05T02:52:29.555Z,18.60
2022-08-05T02:55:02.001Z,18.50
2022-08-05T02:58:18.892Z,18.50
2022-08-05T03:00:25.424Z,18.50
2022-08-05T03:02:56.526Z,18.50
2022-08-05T03:06:55.568Z,18.50
2022-08-05T03:08:13.366Z,18.50
2022-08-05T03:11:55.462Z,18.50
2022-08-05T03:13:51.108Z,18.60
2022-08-05T03:16:21.417Z,18.60
2022-08-05T03:18:49.513Z,18.50
2022-08-05T03:21:17.249Z,18.50
2022-08-05T03:23:45.640Z,18.50
2022-08-05T03:26:31.626Z,18.50
2022-08-05T03:29:00.737Z,18.50
2022-08-05T03:31:55.347Z,18.40
2022-08-05T03:34:17.460Z,18.40
2022-08-05T03:36:46.027Z,18.40
2022-08-05T03:39:20.210Z,18.30
2022-08-05T03:41:56.679Z,18.10
2022-08-05T03:44:25.345Z,18.00
2022-08-05T03:46:57.199Z,17.90
2022-08-05T03:49:30.892Z,17.80
2022-08-05T03:52:49.192Z,17.70
2022-08-05T03:56:05.628Z,17.70
2022-08-05T03:58:16.712Z,17.60
2022-08-05T04:00:46.442Z,17.60
2022-08-05T04:03:28.501Z,17.50
2022-08-05T04:05:59.259Z,17.50
2022-08-05T04:08:36.521Z,17.40
2022-08-05T04:11:08.626Z,17.40
2022-08-05T04:13:51.188Z,17.30
2022-08-05T04:16:25.093Z,17.40
2022-08-05T04:19:00.209Z,17.30
2022-08-05T04:22:09.546Z,17.30
2022-08-05T04:24:19.153Z,17.20
2022-08-05T04:26:50.921Z,17.20
2022-08-05T04:29:19.056Z,17.10
2022-08-05T04:31:48.306Z,17.10
2022-08-05T04:34:32.762Z,17.10
2022-08-05T04:37:03.113Z,17.10
2022-08-05T04:39:32.412Z,17.00
2022-08-05T04:42:03.708Z,17.00
2022-08-05T04:44:31.491Z,17.00
2022-08-05T04:46:59.736Z,16.90
2022-08-05T04:49:38.807Z,16.90
2022-08-05T04:52:16.496Z,16.80
2022-08-05T04:54:44.202Z,16.80
2022-08-05T04:57:11.839Z,16.80
2022-08-05T04:59:40.852Z,16.70
2022-08-05T05:02:36.203Z,16.70
2022-08-05T05:05:01.960Z,16.70
2022-08-05T05:07:35.259Z,16.60
2022-08-05T05:10:06.524Z,16.60
2022-08-05T05:12:34.421Z,16.60
2022-08-05T05:15:10.783Z,16.70
2022-08-05T05:17:55.641Z,16.70
2022-08-05T05:20:28.380Z,16.70
2022-08-05T05:22:58.717Z,16.90
2022-08-05T05:25:40.373Z,16.90
2022-08-05T05:28:10.024Z,17.00
2022-08-05T05:30:39.305Z,17.10
2022-08-05T05:33:14.159Z,17.20
2022-08-05T05:35:47.334Z,17.20
2022-08-05T05:38:22.743Z,17.30
2022-08-05T05:40:58.345Z,17.40
2022-08-05T05:43:54.267Z,17.30
2022-08-05T05:46:17.283Z,17.40
2022-08-05T05:48:48.263Z,17.50
2022-08-05T05:51:24.601Z,17.60
2022-08-05T05:53:58.975Z,17.60
2022-08-05T05:56:34.559Z,17.70
2022-08-05T05:59:07.610Z,17.80
2022-08-05T06:01:39.727Z,17.90
2022-08-05T06:04:14.455Z,18.00
2022-08-05T06:06:47.423Z,18.00
2022-08-05T06:09:25.858Z,18.10
2022-08-05T06:12:06.448Z,18.20
2022-08-05T06:14:40.251Z,18.30
2022-08-05T06:17:22.020Z,18.40
2022-08-05T06:19:59.891Z,18.50
2022-08-05T06:22:30.523Z,18.50
2022-08-05T06:25:59.478Z,18.60
2022-08-05T06:28:12.510Z,18.70
2022-08-05T06:30:40.009Z,18.80
2022-08-05T06:33:10.664Z,18.80
2022-08-05T06:36:07.620Z,18.90
2022-08-05T06:38:36.496Z,18.90
2022-08-05T06:41:07.863Z,19.00
2022-08-05T06:43:57.903Z,19.00
2022-08-05T06:46:30.355Z,19.10
2022-08-05T06:49:01.356Z,19.30
2022-08-05T06:51:31.201Z,19.40
2022-08-05T06:54:01.910Z,19.40
2022-08-05T06:56:34.578Z,19.40
2022-08-05T06:59:09.447Z,19.40
2022-08-05T07:01:40.887Z,19.40
2022-08-05T07:04:11.090Z,19.40
2022-08-05T07:06:42.301Z,19.40
2022-08-05T07:09:09.939Z,19.30
2022-08-05T07:11:39.884Z,19.20
2022-08-05T07:14:29.455Z,19.30
2022-08-05T07:18:08.485Z,19.40
2022-08-05T07:22:38.975Z,20.00
2022-08-05T07:25:23.148Z,20.30
2022-08-05T07:28:01.413Z,20.60
2022-08-05T07:30:38.865Z,20.70
2022-08-05T07:33:10.554Z,20.80
2022-08-05T07:36:04.657Z,20.90
2022-08-05T07:38:42.819Z,20.90
2022-08-05T07:42:13.148Z,20.90
2022-08-05T07:44:18.389Z,20.90
2022-08-05T07:46:49.689Z,20.50
2022-08-05T07:49:18.989Z,20.30
2022-08-05T07:51:53.520Z,19.90
2022-08-05T07:54:30.749Z,20.00
2022-08-05T07:57:13.916Z,20.10
2022-08-05T07:59:48.938Z,20.30
2022-08-05T08:02:17.912Z,20.70
2022-08-05T08:04:48.761Z,20.90
2022-08-05T08:07:22.925Z,21.10
2022-08-05T08:09:53.056Z,21.20
2022-08-05T08:12:35.259Z,21.40
2022-08-05T08:15:15.469Z,21.60
2022-08-05T08:17:49.718Z,21.90
2022-08-05T08:20:43.759Z,21.90
2022-08-05T08:24:03.357Z,21.60
2022-08-05T08:26:02.426Z,21.50
2022-08-05T08:28:37.511Z,21.40
2022-08-05T08:31:18.793Z,21.20
2022-08-05T08:33:46.960Z,21.10
2022-08-05T08:36:38.557Z,21.10
2022-08-05T08:39:15.598Z,21.20
2022-08-05T08:41:59.790Z,21.20
2022-08-05T08:45:19.920Z,21.40
2022-08-05T08:48:06.328Z,21.40
2022-08-05T08:50:31.766Z,21.40
2022-08-05T08:53:08.214Z,21.20
2022-08-05T08:56:03.565Z,21.00
2022-08-05T08:58:37.147Z,20.90
2022-08-05T09:01:16.380Z,20.90
2022-08-05T09:03:55.312Z,20.70
2022-08-05T09:06:30.863Z,20.70
2022-08-05T09:09:01.361Z,20.90
2022-08-05T09:11:51.112Z,21.00
2022-08-05T09:14:59.038Z,21.00
2022-08-05T09:17:40.908Z,21.10
2022-08-05T09:20:05.813Z,21.20
2022-08-05T09:23:05.234Z,21.20
2022-08-05T09:26:01.028Z,21.30
2022-08-05T09:28:32.629Z,21.00
2022-08-05T09:31:43.975Z,21.20
2022-08-05T09:34:07.542Z,21.30
2022-08-05T09:36:54.621Z,21.20
2022-08-05T09:39:41.362Z,21.30
2022-08-05T09:42:23.736Z,21.80
2022-08-05T09:45:03.326Z,22.00
2022-08-05T09:47:55.130Z,21.80
2022-08-05T09:50:38.802Z,22.00
2022-08-05T09:53:23.074Z,22.00
2022-08-05T09:56:04.757Z,21.80
2022-08-05T09:58:33.066Z,21.40
2022-08-05T10:01:13.596Z,21.30
2022-08-05T10:04:10.007Z,21.40
2022-08-05T10:06:54.837Z,21.20
2022-08-05T10:09:29.333Z,21.20
2022-08-05T10:12:18.671Z,21.30
2022-08-05T10:15:24.072Z,21.20
2022-08-05T10:18:10.475Z,21.10
2022-08-05T10:20:57.243Z,21.00
2022-08-05T10:23:58.865Z,21.00
2022-08-05T10:26:31.586Z,21.10
2022-08-05T10:29:00.275Z,21.30
2022-08-05T10:33:01.410Z,21.80
2022-08-05T10:34:16.915Z,22.10
2022-08-05T10:36:45.469Z,22.30
2022-08-05T10:39:59.035Z,22.30
2022-08-05T10:42:32.394Z,22.30
2022-08-05T10:45:09.635Z,22.40
2022-08-05T10:48:29.904Z,22.60
2022-08-05T10:51:06.282Z,22.30
2022-08-05T10:53:55.860Z,22.20
2022-08-05T10:56:30.997Z,22.50
2022-08-05T10:58:58.560Z,22.50
2022-08-05T11:01:54.948Z,22.60
2022-08-05T11:04:32.108Z,22.70
2022-08-05T11:07:07.065Z,22.30
2022-08-05T11:10:09.518Z,22.20
2022-08-05T11:12:38.502Z,22.10
2022-08-05T11:15:20.797Z,22.10
2022-08-05T11:18:13.294Z,22.30
2022-08-05T11:20:47.450Z,22.40
2022-08-05T11:24:04.297Z,22.30
2022-08-05T11:26:33.892Z,22.10
2022-08-05T11:29:13.026Z,22.10
2022-08-05T11:31:54.172Z,22.00
2022-08-05T11:34:47.614Z,22.10
2022-08-05T11:38:26.219Z,22.10
2022-08-05T11:41:12.895Z,22.50
2022-08-05T11:44:05.192Z,22.90
2022-08-05T11:46:58.134Z,23.00
2022-08-05T11:49:26.873Z,23.20
2022-08-05T11:51:57.597Z,22.90
2022-08-05T11:54:38.084Z,22.90
2022-08-05T11:57:08.077Z,23.00
2022-08-05T11:59:54.749Z,22.90
2022-08-05T12:02:33.201Z,22.70
2022-08-05T12:05:07.454Z,22.70
2022-08-05T12:08:08.963Z,22.70
2022-08-05T12:10:43.482Z,22.70
2022-08-05T12:13:28.067Z,22.60
2022-08-05T12:16:14.879Z,22.60
2022-08-05T12:18:49.013Z,22.70
2022-08-05T12:21:31.831Z,22.40
2022-08-05T12:24:07.403Z,22.20
2022-08-05T12:26:38.013Z,22.40
2022-08-05T12:29:22.565Z,22.40
2022-08-05T12:31:53.794Z,22.60
2022-08-05T12:34:37.112Z,22.80
2022-08-05T12:37:16.991Z,22.70
2022-08-05T12:39:53.875Z,22.40
2022-08-05T12:42:21.972Z,22.60
2022-08-05T12:45:01.942Z,22.60
2022-08-05T12:47:31.358Z,22.50
2022-08-05T12:50:04.198Z,22.30
2022-08-05T12:52:41.593Z,22.10
2022-08-05T12:55:25.568Z,21.90
2022-08-05T12:58:38.569Z,22.10
2022-08-05T13:02:02.844Z,22.20
2022-08-05T13:03:41.976Z,22.10
2022-08-05T13:06:17.491Z,22.10
2022-08-05T13:08:52.245Z,22.20
2022-08-05T13:12:02.738Z,22.30
2022-08-05T13:14:24.835Z,22.30
2022-08-05T13:17:20.505Z,22.30
2022-08-05T13:20:08.617Z,22.40
2022-08-05T13:22:46.914Z,22.20
2022-08-05T13:25:21.975Z,22.00
2022-08-05T13:27:53.120Z,22.20
2022-08-05T13:30:36.114Z,22.20
2022-08-05T13:33:06.864Z,22.30
2022-08-05T13:35:47.342Z,22.50
2022-08-05T13:38:30.552Z,22.60
2022-08-05T13:41:03.934Z,22.10
2022-08-05T13:43:45.581Z,21.90
2022-08-05T13:46:30.726Z,21.70
2022-08-05T13:49:10.154Z,21.70
2022-08-05T13:51:46.176Z,21.90
2022-08-05T13:54:16.626Z,21.80
2022-08-05T13:56:50.743Z,21.70
2022-08-05T13:59:24.552Z,21.80
2022-08-05T14:01:56.375Z,21.90
2022-08-05T14:04:51.390Z,22.00
2022-08-05T14:07:25.873Z,22.00
2022-08-05T14:10:35.533Z,22.20
2022-08-05T14:13:07.767Z,22.20
2022-08-05T14:16:08.818Z,22.20
2022-08-05T14:18:24.080Z,22.10
2022-08-05T14:20:54.910Z,22.10
2022-08-05T14:23:25.532Z,22.00
2022-08-05T14:25:58.880Z,21.70
2022-08-05T14:28:31.002Z,21.60
2022-08-05T14:31:00.515Z,21.70
2022-08-05T14:33:56.537Z,21.50
2022-08-05T14:36:21.432Z,21.30
2022-08-05T14:38:51.463Z,21.30
2022-08-05T14:41:21.156Z,21.30
2022-08-05T14:44:02.245Z,21.30
2022-08-05T14:46:35.093Z,21.60
2022-08-05T14:49:07.529Z,21.60
2022-08-05T14:51:37.974Z,21.80
2022-08-05T14:54:27.121Z,22.00
2022-08-05T14:56:55.915Z,22.10
2022-08-05T14:59:23.701Z,22.20
2022-08-05T15:01:53.721Z,22.40
2022-08-05T15:04:22.731Z,22.40
2022-08-05T15:06:51.480Z,21.70
2022-08-05T15:09:50.649Z,21.50
2022-08-05T15:12:11.564Z,21.40
2022-08-05T15:14:50.057Z,20.90
2022-08-05T15:17:46.124Z,20.70
2022-08-05T15:20:15.696Z,20.70
2022-08-05T15:22:52.162Z,20.80
2022-08-05T15:25:23.526Z,20.60
2022-08-05T15:28:08.250Z,20.60
2022-08-05T15:30:41.408Z,20.60
2022-08-05T15:33:11.752Z,20.50
2022-08-05T15:35:45.377Z,20.40
2022-08-05T15:38:35.511Z,20.40
2022-08-05T15:41:20.694Z,20.50
2022-08-05T15:43:49.532Z,20.40
2022-08-05T15:46:20.642Z,20.60
2022-08-05T15:49:01.034Z,20.70
2022-08-05T15:52:13.996Z,20.70
2022-08-05T15:54:35.094Z,20.60
2022-08-05T15:57:07.548Z,20.40
2022-08-05T15:59:36.576Z,20.50
2022-08-05T16:02:09.543Z,20.60
2022-08-05T16:04:43.507Z,20.80
2022-08-05T16:07:12.225Z,20.60
2022-08-05T16:09:42.139Z,20.50
2022-08-05T16:12:14.045Z,20.30
2022-08-05T16:14:43.883Z,20.20
2022-08-05T16:17:12.549Z,20.10
2022-08-05T16:20:04.467Z,20.00
2022-08-05T16:22:34.475Z,20.00
2022-08-05T16:25:09.513Z,20.00
2022-08-05T16:28:00.412Z,19.90
2022-08-05T16:30:29.036Z,19.90
2022-08-05T16:32:58.194Z,19.90
2022-08-05T16:35:28.547Z,20.00
2022-08-05T16:38:15.487Z,20.10
2022-08-05T16:40:55.236Z,19.90
2022-08-05T16:43:31.229Z,20.00
2022-08-05T16:46:07.730Z,20.00
2022-08-05T16:48:49.914Z,20.00
2022-08-05T16:51:17.539Z,20.00
2022-08-05T16:54:05.932Z,19.90
2022-08-05T16:56:34.791Z,20.00
2022-08-05T16:59:09.068Z,19.90
2022-08-05T17:01:54.084Z,19.90
2022-08-05T17:04:28.460Z,19.80
2022-08-05T17:07:01.228Z,19.70
2022-08-05T17:09:38.951Z,19.70
2022-08-05T17:12:22.753Z,19.60
2022-08-05T17:15:07.734Z,19.80
2022-08-05T17:17:42.277Z,19.60
2022-08-05T17:20:14.530Z,19.50
2022-08-05T17:22:42.659Z,19.50
2022-08-05T17:25:34.058Z,19.50
2022-08-05T17:28:06.074Z,19.50
2022-08-05T17:30:50.334Z,19.50
2022-08-05T17:33:23.072Z,19.60
2022-08-05T17:36:07.904Z,19.50
2022-08-05T17:38:39.947Z,19.50
2022-08-05T17:41:23.008Z,19.50
2022-08-05T17:43:59.143Z,19.40
2022-08-05T17:46:31.501Z,19.50
2022-08-05T17:49:02.032Z,19.40
2022-08-05T17:51:40.082Z,19.40
2022-08-05T17:54:14.504Z,19.30
2022-08-05T17:56:51.341Z,19.30
2022-08-05T17:59:20.952Z,19.40
2022-08-05T18:01:53.560Z,19.40
2022-08-05T18:04:27.794Z,19.30
2022-08-05T18:07:01.875Z,19.30
2022-08-05T18:10:00.479Z,19.30
2022-08-05T18:12:23.994Z,19.40
2022-08-05T18:14:52.232Z,19.30
2022-08-05T18:18:00.393Z,19.30
2022-08-05T18:20:14.912Z,19.30
2022-08-05T18:22:53.933Z,19.30
2022-08-05T18:25:33.043Z,19.30
2022-08-05T18:28:07.120Z,19.20
2022-08-05T18:30:40.199Z,19.20
2022-08-05T18:33:13.556Z,19.20
2022-08-05T18:36:00.818Z,19.10
2022-08-05T18:38:30.749Z,19.10
2022-08-05T18:41:58.089Z,19.00
2022-08-05T18:43:48.614Z,19.00
2022-08-05T18:46:19.969Z,18.90
2022-08-05T18:48:51.819Z,18.90
2022-08-05T18:52:03.330Z,18.80
2022-08-05T18:54:31.167Z,18.80
2022-08-05T18:57:02.912Z,18.80
2022-08-05T18:59:50.635Z,18.70
2022-08-05T19:02:26.819Z,18.80
2022-08-05T19:05:02.783Z,18.70
2022-08-05T19:07:49.838Z,18.60
2022-08-05T19:10:26.587Z,18.60
2022-08-05T19:12:58.723Z,18.50
2022-08-05T19:15:58.350Z,18.40
2022-08-05T19:18:20.878Z,18.30
2022-08-05T19:20:52.505Z,18.20
2022-08-05T19:23:22.411Z,18.20
2022-08-05T19:26:09.478Z,18.20
2022-08-05T19:28:43.954Z,18.20
2022-08-05T19:31:15.000Z,17.90
2022-08-05T19:33:56.494Z,17.80
2022-08-05T19:36:26.360Z,17.60
2022-08-05T19:39:00.714Z,17.30
2022-08-05T19:42:05.783Z,17.10
2022-08-05T19:44:19.272Z,17.00
2022-08-05T19:46:50.251Z,17.10
2022-08-05T19:49:18.580Z,17.20
2022-08-05T19:52:08.461Z,17.20
2022-08-05T19:54:35.581Z,16.90
2022-08-05T19:57:09.884Z,16.80
2022-08-05T19:59:59.353Z,16.70
2022-08-05T20:02:32.939Z,16.60
2022-08-05T20:05:00.725Z,16.70
2022-08-05T20:07:47.008Z,16.70
2022-08-05T20:10:19.432Z,16.60
2022-08-05T20:12:49.975Z,16.40
2022-08-05T20:15:23.288Z,16.30
2022-08-05T20:18:10.075Z,16.20
2022-08-05T20:20:56.859Z,16.10
2022-08-05T20:23:39.324Z,15.90
2022-08-05T20:26:16.635Z,16.00
2022-08-05T20:28:57.444Z,16.10
2022-08-05T20:31:42.114Z,16.00
2022-08-05T20:34:12.456Z,16.00
2022-08-05T20:36:43.419Z,15.80
2022-08-05T20:39:16.363Z,15.80
2022-08-05T20:41:47.757Z,15.70
2022-08-05T20:44:30.583Z,15.60
2022-08-05T20:47:01.540Z,15.50
2022-08-05T20:49:33.181Z,15.50
2022-08-05T20:52:08.429Z,15.50
2022-08-05T20:54:43.589Z,15.40
2022-08-05T20:57:24.786Z,15.40
2022-08-05T21:00:34.916Z,15.40
2022-08-05T21:03:06.909Z,15.40
2022-08-05T21:05:47.620Z,15.40
2022-08-05T21:08:41.565Z,15.40
2022-08-05T21:11:12.572Z,15.50
2022-08-05T21:13:56.393Z,15.50
2022-08-05T21:16:29.793Z,15.60
2022-08-05T21:19:07.671Z,15.60
2022-08-05T21:21:44.387Z,15.50
2022-08-05T21:24:19.326Z,15.50
2022-08-05T21:26:53.267Z,15.30
2022-08-05T21:29:32.043Z,15.10
2022-08-05T21:32:04.308Z,14.70
2022-08-05T21:34:35.648Z,14.50
2022-08-05T21:37:04.928Z,14.50
2022-08-05T21:39:40.620Z,14.50
2022-08-05T21:42:41.253Z,14.50
2022-08-05T21:44:59.810Z,14.40
2022-08-05T21:47:56.124Z,14.40
2022-08-05T21:50:22.202Z,14.40
2022-08-05T21:52:50.017Z,14.40
2022-08-05T21:55:22.575Z,14.50
2022-08-05T21:58:10.499Z,14.40
2022-08-05T22:00:51.110Z,14.40
2022-08-05T22:03:48.323Z,14.30
2022-08-05T22:06:23.069Z,14.30
2022-08-05T22:09:14.574Z,14.20
2022-08-05T22:11:46.793Z,14.20
2022-08-05T22:14:33.929Z,14.20
2022-08-05T22:17:11.598Z,14.10
2022-08-05T22:19:57.430Z,14.00
2022-08-05T22:22:31.285Z,14.00
2022-08-05T22:25:23.981Z,14.00
2022-08-05T22:28:10.974Z,14.10
2022-08-05T22:30:56.222Z,14.00
2022-08-05T22:33:56.726Z,13.90
2022-08-05T22:36:17.118Z,13.70
2022-08-05T22:38:48.899Z,13.70
2022-08-05T22:42:04.422Z,13.70
2022-08-05T22:44:12.297Z,13.60
2022-08-05T22:46:41.035Z,13.50
2022-08-05T22:49:23.334Z,13.50
2022-08-05T22:52:04.424Z,13.60
2022-08-05T22:54:39.080Z,13.50
2022-08-05T22:57:08.619Z,13.50
2022-08-05T22:59:51.828Z,13.60
2022-08-05T23:02:29.717Z,13.50
2022-08-05T23:05:04.969Z,13.40
2022-08-05T23:07:45.432Z,13.60
2022-08-05T23:10:19.685Z,13.50
2022-08-05T23:12:51.743Z,13.50
2022-08-05T23:15:27.183Z,13.70
2022-08-05T23:18:02.112Z,13.70
2022-08-05T23:20:43.344Z,13.70
2022-08-05T23:23:12.280Z,13.70
2022-08-05T23:25:54.680Z,13.70
2022-08-05T23:28:30.808Z,13.50
2022-08-05T23:31:17.439Z,13.30
2022-08-05T23:34:05.283Z,13.30
2022-08-05T23:36:41.565Z,13.20
2022-08-05T23:41:57.100Z,13.10
2022-08-05T23:44:31.364Z,13.10
2022-08-05T23:47:15.339Z,13.10
2022-08-05T23:49:49.653Z,13.10
2022-08-05T23:52:31.940Z,13.10
2022-08-05T23:55:05.222Z,13.00
2022-08-05T23:57:38.122Z,12.90
